LYCA weather

Čačak-Preljina Airport
Čačak, Moravica, Serbia

Public forecast

Using degrees Celsius for public forecast. Weather courtesy of forecast.io.

METAR (pilot weather report)

Closest report is Morava Airport, 8.1 nm (15.1 km) SE. Retrieved 2019/09/18 00:30 UTC (7 minutes ago):

LYKV 180030Z 04002KT CAVOK 13/12 Q1014 NOSIG

TAF (pilot weather forecast)

Forecast is more than 12 hours old.

Closest forecast is Morava Airport, 8.1 nm (15.1 km) SE. Retrieved 2019/09/17 00:00 UTC (1 day ago):

TAF LYKV 172300Z 1800/1824 22004KT 9999 BKN040 TX16/1806Z TN12/1824Z BECMG 1804/1806 32010KT TEMPO 1807/1810 RA